sensor_id;sensor_type;location;lat;lon;timestamp;temperature;humidity
6118;DHT22;3089;48.202;11.510;2023-08-17T00:00:42;21.40;99.90
6118;DHT22;3089;48.202;11.510;2023-08-17T00:03:11;21.40;99.90
6118;DHT22;3089;48.202;11.510;2023-08-17T00:05:39;21.40;99.90
6118;DHT22;3089;48.202;11.510;2023-08-17T00:08:08;21.40;99.90
6118;DHT22;3089;48.202;11.510;2023-08-17T00:10:37;21.40;99.90
6118;DHT22;3089;48.202;11.510;2023-08-17T00:13:05;21.40;99.90
6118;DHT22;3089;48.202;11.510;2023-08-17T00:15:33;21.40;99.90
6118;DHT22;3089;48.202;11.510;2023-08-17T00:18:01;21.40;99.90
6118;DHT22;3089;48.202;11.510;2023-08-17T00:20:29;21.40;99.90
6118;DHT22;3089;48.202;11.510;2023-08-17T00:22:56;21.30;99.90
6118;DHT22;3089;48.202;11.510;2023-08-17T00:25:24;21.30;99.90
6118;DHT22;3089;48.202;11.510;2023-08-17T00:27:53;21.30;99.90
6118;DHT22;3089;48.202;11.510;2023-08-17T00:30:21;21.20;99.90
6118;DHT22;3089;48.202;11.510;2023-08-17T00:32:49;21.20;99.90
6118;DHT22;3089;48.202;11.510;2023-08-17T00:35:17;21.20;99.90
6118;DHT22;3089;48.202;11.510;2023-08-17T00:37:45;21.10;99.90
6118;DHT22;3089;48.202;11.510;2023-08-17T00:40:13;21.10;99.90
6118;DHT22;3089;48.202;11.510;2023-08-17T00:42:41;21.10;99.90
6118;DHT22;3089;48.202;11.510;2023-08-17T00:45:10;21.10;99.90
6118;DHT22;3089;48.202;11.510;2023-08-17T00:47:38;21.10;99.90
6118;DHT22;3089;48.202;11.510;2023-08-17T00:50:07;21.10;99.90
6118;DHT22;3089;48.202;11.510;2023-08-17T00:52:35;21.10;99.90
6118;DHT22;3089;48.202;11.510;2023-08-17T00:55:04;21.10;99.90
6118;DHT22;3089;48.202;11.510;2023-08-17T00:57:33;21.10;99.90
6118;DHT22;3089;48.202;11.510;2023-08-17T01:00:01;21.00;99.90
6118;DHT22;3089;48.202;11.510;2023-08-17T01:02:34;21.00;99.90
6118;DHT22;3089;48.202;11.510;2023-08-17T01:05:03;20.90;99.90
6118;DHT22;3089;48.202;11.510;2023-08-17T01:07:34;20.90;99.90
6118;DHT22;3089;48.202;11.510;2023-08-17T01:10:05;20.90;99.90
6118;DHT22;3089;48.202;11.510;2023-08-17T01:12:38;20.80;99.90
6118;DHT22;3089;48.202;11.510;2023-08-17T01:15:12;20.80;99.90
6118;DHT22;3089;48.202;11.510;2023-08-17T01:17:47;20.80;99.90
6118;DHT22;3089;48.202;11.510;2023-08-17T01:20:19;20.70;99.90
6118;DHT22;3089;48.202;11.510;2023-08-17T01:22:49;20.20;99.90
6118;DHT22;3089;48.202;11.510;2023-08-17T01:25:19;20.60;99.90
6118;DHT22;3089;48.202;11.510;2023-08-17T01:27:47;20.70;99.90
6118;DHT22;3089;48.202;11.510;2023-08-17T01:30:16;20.70;99.90
6118;DHT22;3089;48.202;11.510;2023-08-17T01:32:49;20.70;99.90
6118;DHT22;3089;48.202;11.510;2023-08-17T01:35:23;20.60;99.90
6118;DHT22;3089;48.202;11.510;2023-08-17T01:37:58;20.60;99.90
6118;DHT22;3089;48.202;11.510;2023-08-17T01:40:28;20.60;99.90
6118;DHT22;3089;48.202;11.510;2023-08-17T01:42:59;20.60;99.90
6118;DHT22;3089;48.202;11.510;2023-08-17T01:45:27;20.60;99.90
6118;DHT22;3089;48.202;11.510;2023-08-17T01:47:55;20.60;99.90
6118;DHT22;3089;48.202;11.510;2023-08-17T01:50:23;20.60;99.90
6118;DHT22;3089;48.202;11.510;2023-08-17T01:52:51;20.60;99.90
6118;DHT22;3089;48.202;11.510;2023-08-17T01:55:21;20.50;99.90
6118;DHT22;3089;48.202;11.510;2023-08-17T01:57:51;20.40;99.90
6118;DHT22;3089;48.202;11.510;2023-08-17T02:00:19;20.40;99.90
6118;DHT22;3089;48.202;11.510;2023-08-17T02:02:47;20.40;99.90
6118;DHT22;3089;48.202;11.510;2023-08-17T02:05:14;20.40;99.90
6118;DHT22;3089;48.202;11.510;2023-08-17T02:07:42;20.40;99.90
6118;DHT22;3089;48.202;11.510;2023-08-17T02:10:10;20.40;99.90
6118;DHT22;3089;48.202;11.510;2023-08-17T02:12:38;20.40;99.90
6118;DHT22;3089;48.202;11.510;2023-08-17T02:15:08;20.40;99.90
6118;DHT22;3089;48.202;11.510;2023-08-17T02:17:36;20.40;99.90
6118;DHT22;3089;48.202;11.510;2023-08-17T02:20:06;20.30;99.90
6118;DHT22;3089;48.202;11.510;2023-08-17T02:22:35;20.30;99.90
6118;DHT22;3089;48.202;11.510;2023-08-17T02:25:04;20.20;99.90
6118;DHT22;3089;48.202;11.510;2023-08-17T02:27:32;20.30;99.90
6118;DHT22;3089;48.202;11.510;2023-08-17T02:30:00;20.20;99.90
6118;DHT22;3089;48.202;11.510;2023-08-17T02:32:29;20.20;99.90
6118;DHT22;3089;48.202;11.510;2023-08-17T02:34:57;20.10;99.90
6118;DHT22;3089;48.202;11.510;2023-08-17T02:37:25;20.10;99.90
6118;DHT22;3089;48.202;11.510;2023-08-17T02:39:53;20.10;99.90
6118;DHT22;3089;48.202;11.510;2023-08-17T02:42:21;20.10;99.90
6118;DHT22;3089;48.202;11.510;2023-08-17T02:44:49;20.10;99.90
6118;DHT22;3089;48.202;11.510;2023-08-17T02:47:17;20.10;99.90
6118;DHT22;3089;48.202;11.510;2023-08-17T02:49:46;20.20;99.90
6118;DHT22;3089;48.202;11.510;2023-08-17T02:52:15;20.20;99.90
6118;DHT22;3089;48.202;11.510;2023-08-17T02:54:43;20.10;99.90
6118;DHT22;3089;48.202;11.510;2023-08-17T02:57:11;20.00;99.90
6118;DHT22;3089;48.202;11.510;2023-08-17T02:59:39;19.90;99.90
6118;DHT22;3089;48.202;11.510;2023-08-17T03:02:07;19.90;99.90
6118;DHT22;3089;48.202;11.510;2023-08-17T03:04:35;19.80;99.90
6118;DHT22;3089;48.202;11.510;2023-08-17T03:07:04;19.50;99.90
6118;DHT22;3089;48.202;11.510;2023-08-17T03:09:32;19.60;99.90
6118;DHT22;3089;48.202;11.510;2023-08-17T03:12:00;19.80;99.90
6118;DHT22;3089;48.202;11.510;2023-08-17T03:14:28;19.80;99.90
6118;DHT22;3089;48.202;11.510;2023-08-17T03:16:56;19.90;99.90
6118;DHT22;3089;48.202;11.510;2023-08-17T03:19:23;19.80;99.90
6118;DHT22;3089;48.202;11.510;2023-08-17T03:21:51;19.80;99.90
6118;DHT22;3089;48.202;11.510;2023-08-17T03:24:20;19.80;99.90
6118;DHT22;3089;48.202;11.510;2023-08-17T03:26:49;20.00;99.90
6118;DHT22;3089;48.202;11.510;2023-08-17T03:29:17;19.90;99.90
6118;DHT22;3089;48.202;11.510;2023-08-17T03:31:44;19.80;99.90
6118;DHT22;3089;48.202;11.510;2023-08-17T03:34:12;19.70;99.90
6118;DHT22;3089;48.202;11.510;2023-08-17T03:36:40;19.70;99.90
6118;DHT22;3089;48.202;11.510;2023-08-17T03:39:08;19.70;99.90
6118;DHT22;3089;48.202;11.510;2023-08-17T03:41:38;19.60;99.90
6118;DHT22;3089;48.202;11.510;2023-08-17T03:44:06;19.70;99.90
6118;DHT22;3089;48.202;11.510;2023-08-17T03:46:34;19.70;99.90
6118;DHT22;3089;48.202;11.510;2023-08-17T03:49:01;19.60;99.90
6118;DHT22;3089;48.202;11.510;2023-08-17T03:51:29;19.60;99.90
6118;DHT22;3089;48.202;11.510;2023-08-17T03:53:57;19.60;99.90
6118;DHT22;3089;48.202;11.510;2023-08-17T03:56:25;19.60;99.90
6118;DHT22;3089;48.202;11.510;2023-08-17T03:58:54;19.60;99.90
6118;DHT22;3089;48.202;11.510;2023-08-17T04:01:22;19.50;99.90
6118;DHT22;3089;48.202;11.510;2023-08-17T04:03:50;19.50;99.90
6118;DHT22;3089;48.202;11.510;2023-08-17T04:06:18;19.50;99.90
6118;DHT22;3089;48.202;11.510;2023-08-17T04:08:46;19.50;99.90
6118;DHT22;3089;48.202;11.510;2023-08-17T04:11:14;19.40;99.90
6118;DHT22;3089;48.202;11.510;2023-08-17T04:13:41;19.40;99.90
6118;DHT22;3089;48.202;11.510;2023-08-17T04:16:11;19.50;99.90
6118;DHT22;3089;48.202;11.510;2023-08-17T04:18:38;19.50;99.90
6118;DHT22;3089;48.202;11.510;2023-08-17T04:21:06;19.50;99.90
6118;DHT22;3089;48.202;11.510;2023-08-17T04:23:34;19.40;99.90
6118;DHT22;3089;48.202;11.510;2023-08-17T04:26:02;19.40;99.90
6118;DHT22;3089;48.202;11.510;2023-08-17T04:28:30;19.40;99.90
6118;DHT22;3089;48.202;11.510;2023-08-17T04:30:57;19.40;99.90
6118;DHT22;3089;48.202;11.510;2023-08-17T04:33:27;19.40;99.90
6118;DHT22;3089;48.202;11.510;2023-08-17T04:35:54;19.40;99.90
6118;DHT22;3089;48.202;11.510;2023-08-17T04:38:22;19.40;99.90
6118;DHT22;3089;48.202;11.510;2023-08-17T04:40:50;19.40;99.90
6118;DHT22;3089;48.202;11.510;2023-08-17T04:43:18;19.30;99.90
6118;DHT22;3089;48.202;11.510;2023-08-17T04:45:46;19.30;99.90
6118;DHT22;3089;48.202;11.510;2023-08-17T04:48:14;19.40;99.90
6118;DHT22;3089;48.202;11.510;2023-08-17T04:50:44;19.50;99.90
6118;DHT22;3089;48.202;11.510;2023-08-17T04:53:12;19.50;99.90
6118;DHT22;3089;48.202;11.510;2023-08-17T04:55:40;19.50;99.90
6118;DHT22;3089;48.202;11.510;2023-08-17T04:58:07;19.50;99.90
6118;DHT22;3089;48.202;11.510;2023-08-17T05:00:36;19.60;99.90
6118;DHT22;3089;48.202;11.510;2023-08-17T05:03:04;20.60;99.90
6118;DHT22;3089;48.202;11.510;2023-08-17T05:05:37;21.20;99.90
6118;DHT22;3089;48.202;11.510;2023-08-17T05:08:06;21.40;99.90
6118;DHT22;3089;48.202;11.510;2023-08-17T05:10:34;21.70;99.90
6118;DHT22;3089;48.202;11.510;2023-08-17T05:13:02;21.90;99.90
6118;DHT22;3089;48.202;11.510;2023-08-17T05:15:30;21.90;99.90
6118;DHT22;3089;48.202;11.510;2023-08-17T05:17:58;22.00;99.90
6118;DHT22;3089;48.202;11.510;2023-08-17T05:20:26;21.00;99.90
6118;DHT22;3089;48.202;11.510;2023-08-17T05:22:53;21.60;99.90
6118;DHT22;3089;48.202;11.510;2023-08-17T05:25:23;22.40;99.90
6118;DHT22;3089;48.202;11.510;2023-08-17T05:27:52;22.70;99.90
6118;DHT22;3089;48.202;11.510;2023-08-17T05:30:20;23.20;99.90
6118;DHT22;3089;48.202;11.510;2023-08-17T05:32:48;23.50;99.90
6118;DHT22;3089;48.202;11.510;2023-08-17T05:35:17;23.80;99.90
6118;DHT22;3089;48.202;11.510;2023-08-17T05:37:45;23.90;99.90
6118;DHT22;3089;48.202;11.510;2023-08-17T05:40:12;24.00;99.90
6118;DHT22;3089;48.202;11.510;2023-08-17T05:42:42;24.10;99.90
6118;DHT22;3089;48.202;11.510;2023-08-17T05:45:10;24.00;99.90
6118;DHT22;3089;48.202;11.510;2023-08-17T05:47:38;24.00;99.90
6118;DHT22;3089;48.202;11.510;2023-08-17T05:50:07;24.10;99.90
6118;DHT22;3089;48.202;11.510;2023-08-17T05:52:35;24.30;99.90
6118;DHT22;3089;48.202;11.510;2023-08-17T05:55:03;24.40;99.90
6118;DHT22;3089;48.202;11.510;2023-08-17T05:57:31;24.80;99.90
6118;DHT22;3089;48.202;11.510;2023-08-17T06:00:00;24.80;99.90
6118;DHT22;3089;48.202;11.510;2023-08-17T06:02:29;24.80;99.90
6118;DHT22;3089;48.202;11.510;2023-08-17T06:04:57;24.80;99.90
6118;DHT22;3089;48.202;11.510;2023-08-17T06:07:24;24.80;99.90
6118;DHT22;3089;48.202;11.510;2023-08-17T06:09:53;25.00;99.90
6118;DHT22;3089;48.202;11.510;2023-08-17T06:12:21;25.30;99.90
6118;DHT22;3089;48.202;11.510;2023-08-17T06:14:49;25.10;99.90
6118;DHT22;3089;48.202;11.510;2023-08-17T06:17:18;25.50;99.90
6118;DHT22;3089;48.202;11.510;2023-08-17T06:19:45;25.90;99.90
6118;DHT22;3089;48.202;11.510;2023-08-17T06:22:13;26.60;99.90
6118;DHT22;3089;48.202;11.510;2023-08-17T06:24:41;27.40;99.90
6118;DHT22;3089;48.202;11.510;2023-08-17T06:27:09;26.70;99.90
6118;DHT22;3089;48.202;11.510;2023-08-17T06:29:37;26.80;99.90
6118;DHT22;3089;48.202;11.510;2023-08-17T06:32:05;26.90;99.90
6118;DHT22;3089;48.202;11.510;2023-08-17T06:34:34;27.00;99.90
6118;DHT22;3089;48.202;11.510;2023-08-17T06:37:03;28.00;99.90
6118;DHT22;3089;48.202;11.510;2023-08-17T06:39:31;27.40;99.90
6118;DHT22;3089;48.202;11.510;2023-08-17T06:41:59;28.00;99.90
6118;DHT22;3089;48.202;11.510;2023-08-17T06:44:27;28.50;99.90
6118;DHT22;3089;48.202;11.510;2023-08-17T06:46:55;28.70;99.90
6118;DHT22;3089;48.202;11.510;2023-08-17T06:49:23;28.90;99.90
6118;DHT22;3089;48.202;11.510;2023-08-17T06:51:52;28.80;99.90
6118;DHT22;3089;48.202;11.510;2023-08-17T06:54:20;28.50;99.90
6118;DHT22;3089;48.202;11.510;2023-08-17T06:56:48;27.30;99.90
6118;DHT22;3089;48.202;11.510;2023-08-17T06:59:16;27.50;99.90
6118;DHT22;3089;48.202;11.510;2023-08-17T07:01:44;29.20;99.90
6118;DHT22;3089;48.202;11.510;2023-08-17T07:04:12;29.20;99.90
6118;DHT22;3089;48.202;11.510;2023-08-17T07:06:40;29.00;99.90
6118;DHT22;3089;48.202;11.510;2023-08-17T07:09:11;28.60;99.90
6118;DHT22;3089;48.202;11.510;2023-08-17T07:11:40;30.10;99.90
6118;DHT22;3089;48.202;11.510;2023-08-17T07:14:07;30.70;99.90
6118;DHT22;3089;48.202;11.510;2023-08-17T07:16:35;27.80;99.90
6118;DHT22;3089;48.202;11.510;2023-08-17T07:19:04;28.20;99.90
6118;DHT22;3089;48.202;11.510;2023-08-17T07:21:31;27.00;99.90
6118;DHT22;3089;48.202;11.510;2023-08-17T07:24:13;26.50;99.90
6118;DHT22;3089;48.202;11.510;2023-08-17T07:26:41;26.30;99.90
6118;DHT22;3089;48.202;11.510;2023-08-17T07:29:09;26.00;99.90
6118;DHT22;3089;48.202;11.510;2023-08-17T07:31:38;25.20;99.90
6118;DHT22;3089;48.202;11.510;2023-08-17T07:34:09;25.00;99.90
6118;DHT22;3089;48.202;11.510;2023-08-17T07:36:37;25.10;99.90
6118;DHT22;3089;48.202;11.510;2023-08-17T07:39:05;25.30;99.90
6118;DHT22;3089;48.202;11.510;2023-08-17T07:41:35;25.30;99.90
6118;DHT22;3089;48.202;11.510;2023-08-17T07:44:03;25.20;99.90
6118;DHT22;3089;48.202;11.510;2023-08-17T07:46:31;25.40;99.90
6118;DHT22;3089;48.202;11.510;2023-08-17T07:48:59;25.20;99.90
6118;DHT22;3089;48.202;11.510;2023-08-17T07:51:27;25.10;99.90
6118;DHT22;3089;48.202;11.510;2023-08-17T07:53:57;24.90;99.90
6118;DHT22;3089;48.202;11.510;2023-08-17T07:56:25;24.40;99.90
6118;DHT22;3089;48.202;11.510;2023-08-17T07:58:54;24.50;99.90
6118;DHT22;3089;48.202;11.510;2023-08-17T08:01:22;24.70;99.90
6118;DHT22;3089;48.202;11.510;2023-08-17T08:03:51;24.80;99.90
6118;DHT22;3089;48.202;11.510;2023-08-17T08:06:19;25.00;99.90
6118;DHT22;3089;48.202;11.510;2023-08-17T08:08:48;25.00;99.90
6118;DHT22;3089;48.202;11.510;2023-08-17T08:11:15;25.00;99.90
6118;DHT22;3089;48.202;11.510;2023-08-17T08:13:43;24.50;99.90
6118;DHT22;3089;48.202;11.510;2023-08-17T08:16:12;24.80;99.90
6118;DHT22;3089;48.202;11.510;2023-08-17T08:18:40;25.20;99.90
6118;DHT22;3089;48.202;11.510;2023-08-17T08:21:08;25.90;99.90
6118;DHT22;3089;48.202;11.510;2023-08-17T08:23:36;26.50;99.90
6118;DHT22;3089;48.202;11.510;2023-08-17T08:26:04;25.70;99.90
6118;DHT22;3089;48.202;11.510;2023-08-17T08:28:32;25.40;99.90
6118;DHT22;3089;48.202;11.510;2023-08-17T08:31:01;25.40;99.90
6118;DHT22;3089;48.202;11.510;2023-08-17T08:33:31;25.40;99.90
6118;DHT22;3089;48.202;11.510;2023-08-17T08:35:59;25.30;99.90
6118;DHT22;3089;48.202;11.510;2023-08-17T08:38:27;25.40;99.90
6118;DHT22;3089;48.202;11.510;2023-08-17T08:40:55;25.50;99.90
6118;DHT22;3089;48.202;11.510;2023-08-17T08:43:23;25.50;99.90
6118;DHT22;3089;48.202;11.510;2023-08-17T08:45:52;25.60;99.90
6118;DHT22;3089;48.202;11.510;2023-08-17T08:48:22;25.60;99.90
6118;DHT22;3089;48.202;11.510;2023-08-17T08:50:54;25.50;99.90
6118;DHT22;3089;48.202;11.510;2023-08-17T08:53:28;25.60;99.90
6118;DHT22;3089;48.202;11.510;2023-08-17T08:56:03;25.20;99.90
6118;DHT22;3089;48.202;11.510;2023-08-17T08:58:33;25.30;99.90
6118;DHT22;3089;48.202;11.510;2023-08-17T09:01:03;25.50;99.90
6118;DHT22;3089;48.202;11.510;2023-08-17T09:03:35;25.60;99.90
6118;DHT22;3089;48.202;11.510;2023-08-17T09:06:05;25.80;99.90
6118;DHT22;3089;48.202;11.510;2023-08-17T09:08:33;25.60;99.90
6118;DHT22;3089;48.202;11.510;2023-08-17T09:11:01;25.30;99.90
6118;DHT22;3089;48.202;11.510;2023-08-17T09:13:29;25.70;99.90
6118;DHT22;3089;48.202;11.510;2023-08-17T09:15:59;25.70;99.90
6118;DHT22;3089;48.202;11.510;2023-08-17T09:18:34;25.60;99.90
6118;DHT22;3089;48.202;11.510;2023-08-17T09:21:06;25.60;99.90
6118;DHT22;3089;48.202;11.510;2023-08-17T09:23:34;25.50;99.90
6118;DHT22;3089;48.202;11.510;2023-08-17T09:26:08;25.80;99.90
6118;DHT22;3089;48.202;11.510;2023-08-17T09:28:39;25.90;99.90
6118;DHT22;3089;48.202;11.510;2023-08-17T09:31:06;26.20;99.90
6118;DHT22;3089;48.202;11.510;2023-08-17T09:33:34;26.00;99.90
6118;DHT22;3089;48.202;11.510;2023-08-17T09:36:03;25.90;99.90
6118;DHT22;3089;48.202;11.510;2023-08-17T09:38:32;26.00;99.90
6118;DHT22;3089;48.202;11.510;2023-08-17T09:41:00;26.20;99.90
6118;DHT22;3089;48.202;11.510;2023-08-17T09:43:29;27.30;99.90
6118;DHT22;3089;48.202;11.510;2023-08-17T09:46:00;27.50;99.90
6118;DHT22;3089;48.202;11.510;2023-08-17T09:48:29;27.90;99.90
6118;DHT22;3089;48.202;11.510;2023-08-17T09:50:59;27.10;99.90
6118;DHT22;3089;48.202;11.510;2023-08-17T09:53:28;26.80;99.90
6118;DHT22;3089;48.202;11.510;2023-08-17T09:55:59;27.20;99.90
6118;DHT22;3089;48.202;11.510;2023-08-17T09:58:27;28.20;99.90
6118;DHT22;3089;48.202;11.510;2023-08-17T10:00:58;28.60;99.90
6118;DHT22;3089;48.202;11.510;2023-08-17T10:03:27;28.80;99.90
6118;DHT22;3089;48.202;11.510;2023-08-17T10:05:59;28.40;99.90
6118;DHT22;3089;48.202;11.510;2023-08-17T10:08:30;28.30;99.90
6118;DHT22;3089;48.202;11.510;2023-08-17T10:11:02;28.20;99.90
6118;DHT22;3089;48.202;11.510;2023-08-17T10:13:35;27.80;99.90
6118;DHT22;3089;48.202;11.510;2023-08-17T10:16:11;27.40;99.90
6118;DHT22;3089;48.202;11.510;2023-08-17T10:18:50;27.50;99.90
6118;DHT22;3089;48.202;11.510;2023-08-17T10:21:25;27.30;99.90
6118;DHT22;3089;48.202;11.510;2023-08-17T10:23:55;27.40;99.90
6118;DHT22;3089;48.202;11.510;2023-08-17T10:26:25;27.60;99.90
6118;DHT22;3089;48.202;11.510;2023-08-17T10:28:54;27.60;99.90
6118;DHT22;3089;48.202;11.510;2023-08-17T10:31:33;27.40;99.90
6118;DHT22;3089;48.202;11.510;2023-08-17T10:34:02;27.40;99.90
6118;DHT22;3089;48.202;11.510;2023-08-17T10:36:31;27.30;99.90
6118;DHT22;3089;48.202;11.510;2023-08-17T10:39:18;27.20;99.90
6118;DHT22;3089;48.202;11.510;2023-08-17T10:41:51;27.10;99.90
6118;DHT22;3089;48.202;11.510;2023-08-17T10:44:43;27.10;99.90
6118;DHT22;3089;48.202;11.510;2023-08-17T10:47:21;27.30;99.90
6118;DHT22;3089;48.202;11.510;2023-08-17T10:49:50;27.70;99.90
6118;DHT22;3089;48.202;11.510;2023-08-17T10:52:29;28.20;99.90
6118;DHT22;3089;48.202;11.510;2023-08-17T10:54:59;28.20;99.90
6118;DHT22;3089;48.202;11.510;2023-08-17T10:57:30;28.10;99.90
6118;DHT22;3089;48.202;11.510;2023-08-17T11:00:20;28.00;99.90
6118;DHT22;3089;48.202;11.510;2023-08-17T11:02:57;28.00;99.90
6118;DHT22;3089;48.202;11.510;2023-08-17T11:05:39;27.70;99.90
6118;DHT22;3089;48.202;11.510;2023-08-17T11:08:09;27.60;99.90
6118;DHT22;3089;48.202;11.510;2023-08-17T11:10:37;27.70;99.90
6118;DHT22;3089;48.202;11.510;2023-08-17T11:13:07;27.50;99.90
6118;DHT22;3089;48.202;11.510;2023-08-17T11:15:36;27.40;99.90
6118;DHT22;3089;48.202;11.510;2023-08-17T11:18:09;27.30;99.90
6118;DHT22;3089;48.202;11.510;2023-08-17T11:20:39;27.30;99.90
6118;DHT22;3089;48.202;11.510;2023-08-17T11:23:08;27.30;99.90
6118;DHT22;3089;48.202;11.510;2023-08-17T11:25:37;27.40;99.90
6118;DHT22;3089;48.202;11.510;2023-08-17T11:28:08;27.50;99.90
6118;DHT22;3089;48.202;11.510;2023-08-17T11:30:37;27.60;99.90
6118;DHT22;3089;48.202;11.510;2023-08-17T11:33:06;27.90;99.90
6118;DHT22;3089;48.202;11.510;2023-08-17T11:35:34;28.20;99.90
6118;DHT22;3089;48.202;11.510;2023-08-17T11:38:03;28.00;99.90
6118;DHT22;3089;48.202;11.510;2023-08-17T11:40:34;28.30;99.90
6118;DHT22;3089;48.202;11.510;2023-08-17T11:43:03;28.40;99.90
6118;DHT22;3089;48.202;11.510;2023-08-17T11:45:32;28.50;99.90
6118;DHT22;3089;48.202;11.510;2023-08-17T11:48:01;28.50;99.90
6118;DHT22;3089;48.202;11.510;2023-08-17T11:50:30;28.50;99.90
6118;DHT22;3089;48.202;11.510;2023-08-17T11:52:59;28.20;99.90
6118;DHT22;3089;48.202;11.510;2023-08-17T11:55:27;28.30;99.90
6118;DHT22;3089;48.202;11.510;2023-08-17T11:57:55;28.10;99.90
6118;DHT22;3089;48.202;11.510;2023-08-17T12:00:23;28.20;99.90
6118;DHT22;3089;48.202;11.510;2023-08-17T12:02:53;28.20;99.90
6118;DHT22;3089;48.202;11.510;2023-08-17T12:05:22;28.50;99.90
6118;DHT22;3089;48.202;11.510;2023-08-17T12:07:53;28.70;99.90
6118;DHT22;3089;48.202;11.510;2023-08-17T12:10:21;28.70;99.90
6118;DHT22;3089;48.202;11.510;2023-08-17T12:12:50;28.50;99.90
6118;DHT22;3089;48.202;11.510;2023-08-17T12:15:18;28.70;99.90
6118;DHT22;3089;48.202;11.510;2023-08-17T12:17:46;28.80;99.90
6118;DHT22;3089;48.202;11.510;2023-08-17T12:20:17;28.90;99.90
6118;DHT22;3089;48.202;11.510;2023-08-17T12:22:46;28.80;99.90
6118;DHT22;3089;48.202;11.510;2023-08-17T12:25:14;28.80;99.90
6118;DHT22;3089;48.202;11.510;2023-08-17T12:27:42;28.80;99.90
6118;DHT22;3089;48.202;11.510;2023-08-17T12:30:25;29.00;99.90
6118;DHT22;3089;48.202;11.510;2023-08-17T12:32:53;29.40;99.90
6118;DHT22;3089;48.202;11.510;2023-08-17T12:35:25;29.00;99.90
6118;DHT22;3089;48.202;11.510;2023-08-17T12:37:54;28.90;99.90
6118;DHT22;3089;48.202;11.510;2023-08-17T12:40:23;28.90;99.90
6118;DHT22;3089;48.202;11.510;2023-08-17T12:42:51;29.00;99.90
6118;DHT22;3089;48.202;11.510;2023-08-17T12:45:18;29.00;99.90
6118;DHT22;3089;48.202;11.510;2023-08-17T12:47:46;29.10;99.90
6118;DHT22;3089;48.202;11.510;2023-08-17T12:50:14;29.20;99.90
6118;DHT22;3089;48.202;11.510;2023-08-17T12:52:45;29.10;99.90
6118;DHT22;3089;48.202;11.510;2023-08-17T12:55:13;28.90;99.90
6118;DHT22;3089;48.202;11.510;2023-08-17T12:57:41;29.00;99.90
6118;DHT22;3089;48.202;11.510;2023-08-17T13:00:10;29.10;99.90
6118;DHT22;3089;48.202;11.510;2023-08-17T13:02:38;29.10;99.90
6118;DHT22;3089;48.202;11.510;2023-08-17T13:05:06;29.10;99.90
6118;DHT22;3089;48.202;11.510;2023-08-17T13:07:34;29.30;99.90
6118;DHT22;3089;48.202;11.510;2023-08-17T13:10:04;29.30;99.90
6118;DHT22;3089;48.202;11.510;2023-08-17T13:12:32;29.20;99.90
6118;DHT22;3089;48.202;11.510;2023-08-17T13:14:59;29.10;99.90
6118;DHT22;3089;48.202;11.510;2023-08-17T13:17:27;29.30;99.90
6118;DHT22;3089;48.202;11.510;2023-08-17T13:19:55;29.20;99.90
6118;DHT22;3089;48.202;11.510;2023-08-17T13:22:23;29.10;99.90
6118;DHT22;3089;48.202;11.510;2023-08-17T13:24:51;29.20;99.90
6118;DHT22;3089;48.202;11.510;2023-08-17T13:27:20;29.20;99.90
6118;DHT22;3089;48.202;11.510;2023-08-17T13:29:48;29.10;99.90
6118;DHT22;3089;48.202;11.510;2023-08-17T13:32:16;29.40;99.90
6118;DHT22;3089;48.202;11.510;2023-08-17T13:34:44;29.40;99.90
6118;DHT22;3089;48.202;11.510;2023-08-17T13:37:12;29.20;99.90
6118;DHT22;3089;48.202;11.510;2023-08-17T13:39:40;29.40;99.90
6118;DHT22;3089;48.202;11.510;2023-08-17T13:42:07;29.80;99.90
6118;DHT22;3089;48.202;11.510;2023-08-17T13:44:37;29.50;99.90
6118;DHT22;3089;48.202;11.510;2023-08-17T13:47:05;29.30;99.90
6118;DHT22;3089;48.202;11.510;2023-08-17T13:49:33;29.20;99.90
6118;DHT22;3089;48.202;11.510;2023-08-17T13:52:01;29.40;99.90
6118;DHT22;3089;48.202;11.510;2023-08-17T13:54:28;29.50;99.90
6118;DHT22;3089;48.202;11.510;2023-08-17T13:56:56;29.10;99.90
6118;DHT22;3089;48.202;11.510;2023-08-17T13:59:24;28.80;99.90
6118;DHT22;3089;48.202;11.510;2023-08-17T14:01:53;28.50;99.90
6118;DHT22;3089;48.202;11.510;2023-08-17T14:04:22;28.40;99.90
6118;DHT22;3089;48.202;11.510;2023-08-17T14:06:50;28.50;99.90
6118;DHT22;3089;48.202;11.510;2023-08-17T14:09:18;28.60;99.90
6118;DHT22;3089;48.202;11.510;2023-08-17T14:11:46;28.70;99.90
6118;DHT22;3089;48.202;11.510;2023-08-17T14:14:14;28.60;99.90
6118;DHT22;3089;48.202;11.510;2023-08-17T14:16:42;28.60;99.90
6118;DHT22;3089;48.202;11.510;2023-08-17T14:19:12;28.50;99.90
6118;DHT22;3089;48.202;11.510;2023-08-17T14:21:39;28.40;99.90
6118;DHT22;3089;48.202;11.510;2023-08-17T14:24:07;28.40;99.90
6118;DHT22;3089;48.202;11.510;2023-08-17T14:26:36;28.60;99.90
6118;DHT22;3089;48.202;11.510;2023-08-17T14:29:04;28.70;99.90
6118;DHT22;3089;48.202;11.510;2023-08-17T14:31:31;28.90;99.90
6118;DHT22;3089;48.202;11.510;2023-08-17T14:33:59;29.00;99.90
6118;DHT22;3089;48.202;11.510;2023-08-17T14:36:33;28.90;99.90
6118;DHT22;3089;48.202;11.510;2023-08-17T14:39:01;29.00;99.90
6118;DHT22;3089;48.202;11.510;2023-08-17T14:41:29;29.30;99.90
6118;DHT22;3089;48.202;11.510;2023-08-17T14:43:59;28.90;99.90
6118;DHT22;3089;48.202;11.510;2023-08-17T14:46:29;28.90;99.90
6118;DHT22;3089;48.202;11.510;2023-08-17T14:48:57;28.80;99.90
6118;DHT22;3089;48.202;11.510;2023-08-17T14:51:25;28.80;99.90
6118;DHT22;3089;48.202;11.510;2023-08-17T14:53:57;28.80;99.90
6118;DHT22;3089;48.202;11.510;2023-08-17T14:56:25;28.80;99.90
6118;DHT22;3089;48.202;11.510;2023-08-17T14:58:53;28.80;99.90
6118;DHT22;3089;48.202;11.510;2023-08-17T15:01:20;28.70;99.90
6118;DHT22;3089;48.202;11.510;2023-08-17T15:03:48;29.00;99.90
6118;DHT22;3089;48.202;11.510;2023-08-17T15:06:16;28.80;99.90
6118;DHT22;3089;48.202;11.510;2023-08-17T15:09:01;28.80;99.90
6118;DHT22;3089;48.202;11.510;2023-08-17T15:11:30;28.80;99.90
6118;DHT22;3089;48.202;11.510;2023-08-17T15:13:57;28.80;99.90
6118;DHT22;3089;48.202;11.510;2023-08-17T15:16:25;28.70;99.90
6118;DHT22;3089;48.202;11.510;2023-08-17T15:18:54;28.50;99.90
6118;DHT22;3089;48.202;11.510;2023-08-17T15:21:22;28.30;99.90
6118;DHT22;3089;48.202;11.510;2023-08-17T15:23:50;28.30;99.90
6118;DHT22;3089;48.202;11.510;2023-08-17T15:26:19;28.20;99.90
6118;DHT22;3089;48.202;11.510;2023-08-17T15:28:47;28.30;99.90
6118;DHT22;3089;48.202;11.510;2023-08-17T15:31:15;28.20;99.90
6118;DHT22;3089;48.202;11.510;2023-08-17T15:33:43;28.20;99.90
6118;DHT22;3089;48.202;11.510;2023-08-17T15:36:11;28.20;99.90
6118;DHT22;3089;48.202;11.510;2023-08-17T15:38:39;28.20;99.90
6118;DHT22;3089;48.202;11.510;2023-08-17T15:41:07;28.10;99.90
6118;DHT22;3089;48.202;11.510;2023-08-17T15:43:36;28.10;99.90
6118;DHT22;3089;48.202;11.510;2023-08-17T15:46:04;28.10;99.90
6118;DHT22;3089;48.202;11.510;2023-08-17T15:48:32;28.00;99.90
6118;DHT22;3089;48.202;11.510;2023-08-17T15:51:00;28.00;99.90
6118;DHT22;3089;48.202;11.510;2023-08-17T15:53:28;27.80;99.90
6118;DHT22;3089;48.202;11.510;2023-08-17T15:55:55;27.80;99.90